Time;durP1;ratioP1;P1;durP2;ratioP2;P2;SDS_P1;SDS_P2;PMS_P1;PMS_P2;Temp;Humidity;BMP_temperature;BMP_pressure;BME280_temperature;BME280_humidity;BME280_pressure;Samples;Min_cycle;Max_cycle;Signal;HPM_P1;HPM_P2
2023/05/30 00:01:06;;;;;;;4.13;3.73;;;;;;;16.78;53.64;99242.00;5118428;27;41444;-77
2023/05/30 00:03:35;;;;;;;3.57;2.97;;;;;;;16.90;53.54;99274.91;5118504;27;42110;-76
2023/05/30 00:06:02;;;;;;;4.43;3.30;;;;;;;16.86;53.75;99273.44;5153836;27;42247;-76
2023/05/30 00:08:30;;;;;;;5.13;3.30;;;;;;;16.83;53.62;99277.22;5116621;27;39086;-76
2023/05/30 00:10:59;;;;;;;5.53;3.43;;;;;;;16.78;53.60;99278.59;5134360;27;42655;-76
2023/05/30 00:13:28;;;;;;;4.23;3.27;;;;;;;16.75;53.54;99277.00;5116975;27;43328;-76
2023/05/30 00:15:56;;;;;;;6.60;3.00;;;;;;;16.71;53.07;99280.03;5117369;27;41295;-76
2023/05/30 00:18:25;;;;;;;7.30;3.50;;;;;;;16.66;53.66;99277.75;5117420;27;40015;-76
2023/05/30 00:20:53;;;;;;;3.53;3.00;;;;;;;16.66;53.23;99277.75;5134062;27;41432;-77
2023/05/30 00:23:21;;;;;;;5.27;3.40;;;;;;;16.61;53.48;99269.22;5117391;27;43050;-77
2023/05/30 00:25:49;;;;;;;4.30;3.07;;;;;;;16.59;53.43;99279.19;5134202;27;42638;-77
2023/05/30 00:28:18;;;;;;;3.50;3.00;;;;;;;16.56;53.46;99282.13;5134571;27;41086;-76
2023/05/30 00:30:46;;;;;;;3.97;2.77;;;;;;;16.53;53.82;99280.53;5117295;27;40615;-76
2023/05/30 00:33:13;;;;;;;6.23;3.07;;;;;;;16.50;53.33;99274.56;5134352;27;43024;-77
2023/05/30 00:35:41;;;;;;;4.77;2.93;;;;;;;16.36;53.75;99264.13;5134424;27;41989;-77
2023/05/30 00:38:10;;;;;;;4.00;3.13;;;;;;;16.39;53.77;99274.59;5134082;27;40818;-76
2023/05/30 00:40:37;;;;;;;5.03;3.23;;;;;;;16.31;54.08;99266.34;5117098;27;40653;-77
2023/05/30 00:43:05;;;;;;;3.57;2.73;;;;;;;16.37;53.80;99276.53;5134004;27;42757;-76
2023/05/30 00:45:35;;;;;;;3.70;2.73;;;;;;;16.32;53.81;99268.88;5152553;27;42291;-76
2023/05/30 00:48:02;;;;;;;3.73;2.60;;;;;;;16.25;54.21;99267.66;5134036;27;40846;-77
2023/05/30 00:50:33;;;;;;;4.07;2.80;;;;;;;16.25;54.41;99267.66;5133916;27;41716;-76
2023/05/30 00:53:01;;;;;;;4.80;3.00;;;;;;;16.22;54.20;99269.72;5133611;27;43503;-76
2023/05/30 00:55:29;;;;;;;3.73;2.83;;;;;;;16.15;54.91;99266.69;5116654;27;41130;-76
2023/05/30 00:57:57;;;;;;;5.00;2.60;;;;;;;16.05;54.04;99260.38;5134946;27;39917;-76
2023/05/30 01:00:26;;;;;;;5.03;3.10;;;;;;;16.01;54.59;99258.91;5118028;27;42102;-75
2023/05/30 01:02:59;;;;;;;5.83;3.20;;;;;;;16.04;55.05;99264.88;5117208;27;42868;-76
2023/05/30 01:05:27;;;;;;;4.17;3.13;;;;;;;15.84;55.01;99230.84;5117852;27;42069;-76
2023/05/30 01:07:55;;;;;;;3.93;2.53;;;;;;;15.97;55.18;99263.63;5134280;27;40332;-76
2023/05/30 01:10:23;;;;;;;4.50;3.00;;;;;;;15.94;54.95;99269.25;5117111;27;41661;-76
2023/05/30 01:13:04;;;;;;;3.93;2.57;;;;;;;15.92;55.03;99273.84;5152115;27;43650;-76
2023/05/30 01:15:35;;;;;;;4.03;2.67;;;;;;;15.87;55.34;99268.00;5130691;27;42315;-76
2023/05/30 01:18:12;;;;;;;6.17;3.30;;;;;;;15.83;55.14;99271.88;5133923;27;40652;-76
2023/05/30 01:20:44;;;;;;;6.47;2.97;;;;;;;15.74;55.26;99269.91;5149011;27;42329;-75
2023/05/30 01:23:32;;;;;;;5.73;3.17;;;;;;;15.78;55.17;99279.41;5116311;27;42643;-76
2023/05/30 01:26:23;;;;;;;6.13;2.80;;;;;;;15.69;55.27;99264.94;5130358;27;42211;-75
2023/05/30 01:28:54;;;;;;;3.97;2.80;;;;;;;15.74;55.44;99272.59;5116652;27;39127;-76
2023/05/30 01:31:22;;;;;;;2.60;2.33;;;;;;;15.63;54.68;99264.53;5133459;27;40811;-76
2023/05/30 01:33:51;;;;;;;6.23;3.00;;;;;;;15.69;54.68;99282.78;5133635;27;42717;-76
2023/05/30 01:36:22;;;;;;;5.60;3.30;;;;;;;15.67;54.64;99279.38;5149083;27;42256;-75
2023/05/30 01:38:50;;;;;;;4.60;2.50;;;;;;;15.65;54.49;99278.63;5116414;27;39751;-75
2023/05/30 01:41:22;;;;;;;4.27;2.80;;;;;;;15.63;54.51;99288.56;5133354;27;41737;-76
2023/05/30 01:43:58;;;;;;;4.30;2.80;;;;;;;15.61;54.64;99282.50;5130439;27;43772;-75
2023/05/30 01:46:31;;;;;;;3.13;2.57;;;;;;;15.55;54.43;99280.31;5115788;27;42036;-76
2023/05/30 01:49:09;;;;;;;3.67;2.50;;;;;;;15.53;54.73;99284.88;5116589;27;40063;-76
2023/05/30 01:51:43;;;;;;;3.97;2.70;;;;;;;15.49;54.86;99281.56;5149225;27;42706;-76
2023/05/30 01:54:15;;;;;;;5.57;3.00;;;;;;;15.44;55.25;99281.94;5148825;27;42713;-77
2023/05/30 01:56:45;;;;;;;5.73;3.00;;;;;;;15.41;55.26;99281.31;5117123;27;41238;-76
2023/05/30 01:59:16;;;;;;;4.17;2.70;;;;;;;15.38;54.99;99286.88;5117193;27;40245;-76
2023/05/30 02:01:44;;;;;;;4.03;2.40;;;;;;;15.36;54.72;99275.47;5116464;27;41989;-76
2023/05/30 02:04:11;;;;;;;5.60;3.30;;;;;;;15.33;54.82;99283.72;5134069;27;42916;-76
2023/05/30 02:06:39;;;;;;;5.43;2.77;;;;;;;15.29;54.73;99277.75;5117793;27;41244;-76
2023/05/30 02:09:07;;;;;;;5.63;2.33;;;;;;;15.27;55.12;99273.50;5137777;27;40904;-76
2023/05/30 02:11:34;;;;;;;7.50;2.23;;;;;;;15.24;54.73;99277.25;5137595;27;41770;-75
2023/05/30 02:14:02;;;;;;;3.77;2.67;;;;;;;15.21;54.89;99280.13;5137117;27;43839;-75
2023/05/30 02:16:31;;;;;;;3.80;2.50;;;;;;;15.19;55.17;99284.75;5137301;27;43189;-76
2023/05/30 02:19:00;;;;;;;4.23;2.50;;;;;;;15.17;54.69;99289.34;5119123;27;38792;-76
2023/05/30 02:21:27;;;;;;;3.87;2.50;;;;;;;14.96;54.33;99258.94;5118398;27;40556;-76
2023/05/30 02:23:55;;;;;;;5.03;2.53;;;;;;;15.12;54.52;99283.50;5155081;27;42716;-76
2023/05/30 02:26:26;;;;;;;3.17;2.53;;;;;;;15.08;54.57;99279.38;5118841;27;41382;-76
2023/05/30 02:28:53;;;;;;;2.60;2.10;;;;;;;15.06;54.88;99286.63;5119349;27;39885;-77
2023/05/30 02:31:21;;;;;;;3.70;2.50;;;;;;;15.04;54.40;99278.72;5154592;27;41834;-75
2023/05/30 02:33:50;;;;;;;3.07;2.50;;;;;;;14.69;54.48;99229.81;5136115;27;43586;-76
2023/05/30 02:36:19;;;;;;;3.37;2.70;;;;;;;15.00;54.91;99292.41;5135878;27;41268;-75
2023/05/30 02:38:47;;;;;;;3.63;2.53;;;;;;;14.98;54.16;99295.19;5118928;27;38898;-75
2023/05/30 02:41:14;;;;;;;3.40;2.90;;;;;;;14.95;54.31;99295.44;5136107;27;42722;-76
2023/05/30 02:43:42;;;;;;;5.23;2.90;;;;;;;14.74;54.21;99265.81;5136118;27;43712;-76
2023/05/30 02:46:10;;;;;;;3.20;2.37;;;;;;;14.88;54.17;99299.50;5118479;27;43527;-76
2023/05/30 02:48:41;;;;;;;4.97;2.73;;;;;;;14.55;54.42;99248.63;5119288;27;39983;-75
2023/05/30 02:51:10;;;;;;;5.40;2.50;;;;;;;14.83;53.94;99299.00;5118587;27;41625;-75
2023/05/30 02:53:38;;;;;;;3.23;2.30;;;;;;;14.82;53.60;99304.44;5135686;27;42541;-76
2023/05/30 02:56:06;;;;;;;5.50;2.70;;;;;;;14.79;53.55;99301.97;5119438;27;41463;-76
2023/05/30 02:58:59;;;;;;;2.83;2.17;;;;;;;14.73;53.45;99306.78;5128231;27;40182;-77
2023/05/30 03:01:44;;;;;;;4.03;2.40;;;;;;;14.70;53.34;99304.34;5134480;27;41740;-76
2023/05/30 03:04:13;;;;;;;3.27;2.10;;;;;;;14.67;53.67;99312.56;5136738;27;43010;-76
2023/05/30 03:06:50;;;;;;;3.53;2.37;;;;;;;14.62;53.24;99320.03;5117106;27;43127;-76
2023/05/30 03:09:24;;;;;;;4.33;2.23;;;;;;;14.59;53.21;99312.25;5118758;27;40065;-76
2023/05/30 03:11:52;;;;;;;4.10;2.57;;;;;;;14.57;53.35;99311.53;5135343;27;42661;-76
2023/05/30 03:14:20;;;;;;;4.00;2.33;;;;;;;14.54;53.43;99311.75;5135052;27;42939;-78
2023/05/30 03:16:48;;;;;;;5.47;2.10;;;;;;;14.52;53.21;99315.47;5117653;27;42160;-76
2023/05/30 03:19:18;;;;;;;3.27;2.33;;;;;;;14.51;52.86;99319.94;5135899;27;40528;-76
2023/05/30 03:21:49;;;;;;;3.83;2.37;;;;;;;14.50;52.63;99315.56;5117802;27;41102;-76
2023/05/30 03:24:19;;;;;;;4.27;2.00;;;;;;;14.48;52.72;99312.16;5132347;27;42727;-76
2023/05/30 03:26:46;;;;;;;3.70;2.13;;;;;;;14.51;52.32;99325.28;5135031;27;42985;-76
2023/05/30 03:29:16;;;;;;;3.57;2.07;;;;;;;14.49;52.10;99321.88;5118106;27;40122;-77
2023/05/30 03:31:44;;;;;;;5.90;2.50;;;;;;;14.49;51.81;99335.19;5135187;27;42864;-77
2023/05/30 03:34:12;;;;;;;4.10;2.10;;;;;;;14.51;51.74;99337.75;5135261;27;42264;-77
2023/05/30 03:36:41;;;;;;;6.90;2.90;;;;;;;14.51;51.80;99337.75;5117619;27;42222;-77
2023/05/30 03:39:11;;;;;;;4.53;2.67;;;;;;;14.48;51.60;99338.81;5117894;27;39893;-74
2023/05/30 03:41:40;;;;;;;3.87;2.13;;;;;;;14.48;51.37;99338.81;5117355;27;41464;-75
2023/05/30 03:44:08;;;;;;;4.87;2.37;;;;;;;14.54;51.36;99353.53;5117678;27;44134;-75
2023/05/30 03:46:35;;;;;;;5.43;2.13;;;;;;;14.55;51.24;99349.91;5117440;27;41366;-75
2023/05/30 03:49:03;;;;;;;5.30;2.07;;;;;;;14.54;51.31;99354.38;5117775;27;39187;-74
2023/05/30 03:51:30;;;;;;;5.47;2.30;;;;;;;14.56;50.77;99354.28;5134441;27;42573;-75
2023/05/30 03:53:58;;;;;;;4.00;2.40;;;;;;;14.54;50.87;99359.72;5134870;27;43821;-77
2023/05/30 03:56:27;;;;;;;3.50;1.90;;;;;;;14.48;50.81;99344.16;5135538;27;42242;-75
2023/05/30 03:58:55;;;;;;;3.07;2.03;;;;;;;14.59;50.52;99362.03;5154338;27;39818;-77
2023/05/30 04:01:23;;;;;;;3.37;2.00;;;;;;;14.59;50.92;99348.72;5135392;27;42839;-76
2023/05/30 04:03:51;;;;;;;3.37;1.90;;;;;;;14.66;50.37;99361.53;5135818;27;42820;-76
2023/05/30 04:06:19;;;;;;;5.37;2.40;;;;;;;14.67;50.81;99359.69;5153466;27;42325;-76
2023/05/30 04:08:47;;;;;;;2.47;1.90;;;;;;;14.65;50.33;99361.63;5118398;27;39540;-76
2023/05/30 04:11:16;;;;;;;4.33;2.20;;;;;;;14.71;50.57;99363.88;5135320;27;42717;-76
2023/05/30 04:13:46;;;;;;;5.77;2.30;;;;;;;14.67;50.46;99359.69;5117636;27;41807;-76
2023/05/30 04:16:13;;;;;;;7.60;2.07;;;;;;;14.77;50.20;99376.75;5135217;27;42008;-76
2023/05/30 04:18:43;;;;;;;4.50;2.50;;;;;;;14.77;49.88;99381.22;5135523;27;39779;-76
2023/05/30 04:21:13;;;;;;;1.93;1.70;;;;;;;14.81;49.82;99386.25;5117874;27;41623;-76
2023/05/30 04:23:42;;;;;;;3.87;2.00;;;;;;;14.84;49.70;99386.00;5117972;27;41738;-76
2023/05/30 04:26:11;;;;;;;4.67;2.30;;;;;;;14.89;49.13;99397.19;5117693;27;43640;-77
2023/05/30 04:28:39;;;;;;;4.33;2.30;;;;;;;14.90;49.34;99398.06;5116739;27;39237;-76
2023/05/30 04:31:09;;;;;;;3.90;2.03;;;;;;;14.88;49.53;99389.31;5133109;27;41596;-76
2023/05/30 04:33:37;;;;;;;6.77;2.30;;;;;;;15.01;48.82;99401.66;5134182;27;42443;-76
2023/05/30 04:36:10;;;;;;;3.93;2.33;;;;;;;15.05;49.25;99410.31;5133826;27;42505;-76
2023/05/30 04:38:39;;;;;;;4.67;2.50;;;;;;;15.08;48.92;99407.41;5116981;27;39991;-76
2023/05/30 04:41:07;;;;;;;2.80;1.70;;;;;;;15.17;48.67;99409.41;5116809;27;40883;-76
2023/05/30 04:43:36;;;;;;;3.70;2.10;;;;;;;15.23;48.32;99411.63;5134148;27;43040;-76
2023/05/30 04:46:05;;;;;;;4.00;2.17;;;;;;;15.30;48.03;99412.91;5116454;27;41322;-77
2023/05/30 04:48:34;;;;;;;3.40;2.13;;;;;;;15.38;48.22;99405.16;5117012;27;39245;-76
2023/05/30 04:51:02;;;;;;;3.57;2.10;;;;;;;15.35;48.02;99400.03;5115987;27;41144;-76
2023/05/30 04:53:30;;;;;;;3.40;2.10;;;;;;;15.16;47.54;99367.69;5134059;27;43637;-76
2023/05/30 04:55:57;;;;;;;3.67;2.00;;;;;;;15.46;47.70;99417.94;5117203;27;42294;-76
2023/05/30 04:58:25;;;;;;;3.27;2.10;;;;;;;15.45;47.57;99417.09;5135074;27;40998;-76
2023/05/30 05:00:53;;;;;;;4.63;2.60;;;;;;;15.48;47.46;99428.50;5117555;27;40986;-76
2023/05/30 05:03:21;;;;;;;5.00;2.50;;;;;;;15.46;47.16;99413.44;5134690;27;42467;-76
2023/05/30 05:05:50;;;;;;;5.53;2.00;;;;;;;15.61;47.02;99430.19;5153203;27;42585;-76
2023/05/30 05:08:18;;;;;;;3.43;2.03;;;;;;;15.58;46.89;99421.59;5134984;27;39769;-75
2023/05/30 05:10:46;;;;;;;4.13;2.10;;;;;;;15.68;46.80;99433.28;5117371;27;40945;-76
2023/05/30 05:13:13;;;;;;;3.67;2.30;;;;;;;15.73;46.96;99431.09;5133998;27;43616;-76
2023/05/30 05:15:41;;;;;;;4.17;1.97;;;;;;;15.54;46.24;99391.56;5131526;27;42013;-76
2023/05/30 05:18:10;;;;;;;5.20;2.40;;;;;;;15.76;45.87;99430.88;5134443;27;39763;-76
2023/05/30 05:20:37;;;;;;;4.23;2.10;;;;;;;15.89;46.18;99446.84;5116912;27;41589;-76
2023/05/30 05:23:07;;;;;;;4.93;1.97;;;;;;;15.93;46.42;99438.50;5133761;27;43387;-77
2023/05/30 05:25:35;;;;;;;3.63;2.43;;;;;;;16.00;46.22;99445.06;5132664;27;42927;-76
2023/05/30 05:28:02;;;;;;;4.63;2.23;;;;;;;15.92;46.47;99419.91;5133688;27;40073;-77
2023/05/30 05:30:30;;;;;;;5.77;2.30;;;;;;;16.12;46.06;99454.81;5116415;27;43969;-77
2023/05/30 05:32:58;;;;;;;3.67;2.30;;;;;;;16.22;45.63;99449.63;5116245;27;41908;-77
2023/05/30 05:35:25;;;;;;;4.13;1.93;;;;;;;16.37;45.14;99451.13;5152017;27;42368;-76
2023/05/30 05:37:53;;;;;;;3.90;2.33;;;;;;;16.45;44.71;99458.56;5133307;27;40363;-76
2023/05/30 05:40:23;;;;;;;5.77;2.37;;;;;;;16.56;44.93;99458.59;5152769;27;41667;-76
2023/05/30 05:42:50;;;;;;;3.20;1.97;;;;;;;16.69;44.48;99456.69;5155170;27;42615;-76
2023/05/30 05:45:18;;;;;;;4.37;2.10;;;;;;;16.85;44.43;99449.16;5136835;27;43184;-76
2023/05/30 05:47:45;;;;;;;8.50;2.80;;;;;;;16.98;44.12;99458.91;5136775;27;40718;-77
2023/05/30 05:50:13;;;;;;;6.50;2.03;;;;;;;17.20;44.22;99465.09;5120043;27;42875;-75
2023/05/30 05:52:41;;;;;;;4.93;2.50;;;;;;;17.38;43.14;99462.78;5155299;27;43746;-77
2023/05/30 05:55:09;;;;;;;6.03;2.43;;;;;;;17.50;43.38;99472.50;5137405;27;41227;-76
2023/05/30 05:57:38;;;;;;;5.80;2.40;;;;;;;17.58;42.95;99480.75;5156504;27;39959;-75
2023/05/30 06:00:09;;;;;;;5.17;2.53;;;;;;;17.66;42.62;99482.84;5138008;27;41912;-75
2023/05/30 06:02:39;;;;;;;4.23;2.17;;;;;;;17.80;42.38;99485.22;5137722;27;42084;-75
2023/05/30 06:05:08;;;;;;;4.30;2.07;;;;;;;17.84;42.21;99478.66;5138113;27;43047;-75
2023/05/30 06:07:36;;;;;;;6.73;2.13;;;;;;;18.03;42.14;99486.03;5137343;27;40912;-76
2023/05/30 06:10:04;;;;;;;5.10;2.27;;;;;;;18.25;41.31;99480.56;5137956;27;41844;-76
2023/05/30 06:12:32;;;;;;;5.57;2.20;;;;;;;18.44;41.05;99484.38;5137816;27;42830;-77
2023/05/30 06:15:01;;;;;;;2.97;2.30;;;;;;;18.69;41.00;99481.31;5137727;27;43259;-75
2023/05/30 06:17:29;;;;;;;5.20;2.30;;;;;;;18.82;41.25;99479.28;5120171;27;38378;-76
2023/05/30 06:19:57;;;;;;;4.03;1.97;;;;;;;19.06;40.22;99496.91;5137851;27;41671;-75
2023/05/30 06:22:25;;;;;;;3.57;1.90;;;;;;;19.23;39.24;99499.84;5155854;27;42456;-78
2023/05/30 06:24:53;;;;;;;2.60;2.03;;;;;;;19.47;39.23;99504.03;5154717;27;42621;-76
2023/05/30 06:27:21;;;;;;;5.37;2.33;;;;;;;19.71;39.37;99500.03;5136498;27;40020;-75
2023/05/30 06:29:48;;;;;;;4.10;2.23;;;;;;;19.85;39.12;99506.84;5154975;27;41679;-76
2023/05/30 06:32:18;;;;;;;5.93;2.33;;;;;;;19.88;39.18;99494.97;5154776;27;43478;-78
2023/05/30 06:34:46;;;;;;;4.50;1.90;;;;;;;19.89;38.61;99504.75;5135993;27;42204;-76
2023/05/30 06:37:14;;;;;;;5.80;2.50;;;;;;;19.90;38.97;99490.31;5119205;27;39499;-77
2023/05/30 06:39:41;;;;;;;5.60;2.10;;;;;;;19.99;37.23;99513.66;5136514;27;43489;-78
2023/05/30 06:42:10;;;;;;;5.33;2.20;;;;;;;20.07;38.05;99516.50;5118853;27;42822;-78
2023/05/30 06:44:44;;;;;;;4.27;2.00;;;;;;;20.28;38.42;99513.66;5136612;27;40913;-78
2023/05/30 06:47:12;;;;;;;4.57;2.30;;;;;;;20.47;38.27;99508.34;5136377;27;38601;-75
2023/05/30 06:49:41;;;;;;;4.87;2.13;;;;;;;20.55;37.33;99518.38;5136301;27;41947;-76
2023/05/30 06:52:08;;;;;;;4.57;2.27;;;;;;;20.64;36.92;99525.63;5134880;27;41464;-77
2023/05/30 06:54:36;;;;;;;5.70;2.30;;;;;;;20.86;36.60;99514.50;5119132;27;42165;-75
2023/05/30 06:57:05;;;;;;;4.50;1.80;;;;;;;21.15;37.89;99509.88;5137159;27;40979;-77
2023/05/30 06:59:34;;;;;;;4.47;2.20;;;;;;;21.31;36.18;99503.06;5155457;27;41664;-77
2023/05/30 07:02:03;;;;;;;4.83;2.30;;;;;;;21.79;35.76;99524.38;5119574;27;43500;-76
2023/05/30 07:04:30;;;;;;;3.57;2.00;;;;;;;22.08;35.29;99525.09;5136956;27;42351;-77
2023/05/30 07:07:02;;;;;;;4.03;2.03;;;;;;;22.32;34.94;99512.81;5155493;27;40165;-76
2023/05/30 07:09:30;;;;;;;3.37;2.13;;;;;;;22.61;34.82;99529.63;5137133;27;42673;-77
2023/05/30 07:11:57;;;;;;;6.03;2.43;;;;;;;22.71;33.95;99534.94;5119594;27;41789;-78
2023/05/30 07:14:25;;;;;;;4.23;2.07;;;;;;;22.91;34.65;99533.75;5119005;27;41443;-77
2023/05/30 07:16:53;;;;;;;4.47;2.17;;;;;;;23.07;34.55;99531.19;5136577;27;40556;-76
2023/05/30 07:19:21;;;;;;;2.70;1.87;;;;;;;23.29;34.81;99537.91;5119505;27;41849;-76
2023/05/30 07:21:48;;;;;;;4.07;2.47;;;;;;;23.40;33.16;99539.47;5135992;27;42707;-77
2023/05/30 07:24:17;;;;;;;6.50;2.40;;;;;;;23.50;33.50;99532.09;5117542;27;41537;-77
2023/05/30 07:26:45;;;;;;;4.30;2.10;;;;;;;23.84;33.49;99537.53;5153845;27;40818;-78
2023/05/30 07:29:12;;;;;;;6.03;3.13;;;;;;;24.39;32.68;99537.84;5135727;27;40722;-80
2023/05/30 07:31:40;;;;;;;6.47;2.50;;;;;;;25.05;31.92;99517.88;5135048;27;42952;-77
2023/05/30 07:34:08;;;;;;;4.47;2.20;;;;;;;26.07;30.84;99544.16;5135514;27;43237;-79
2023/05/30 07:36:36;;;;;;;4.37;2.10;;;;;;;26.52;29.72;99499.91;5153744;27;39928;-78
2023/05/30 07:39:03;;;;;;;3.37;2.10;;;;;;;26.86;29.13;99556.53;5154267;27;42612;-77
2023/05/30 07:41:32;;;;;;;4.97;2.10;;;;;;;26.82;29.06;99547.91;5135162;27;42544;-78
2023/05/30 07:44:00;;;;;;;5.10;2.57;;;;;;;26.61;29.50;99555.88;5153928;27;42344;-77
2023/05/30 07:46:28;;;;;;;4.63;2.33;;;;;;;26.20;29.01;99554.44;5118219;27;39056;-76
2023/05/30 07:48:55;;;;;;;4.03;1.90;;;;;;;26.11;30.16;99546.31;5135305;27;41760;-79
2023/05/30 07:51:23;;;;;;;4.20;2.20;;;;;;;26.46;29.29;99553.09;5135147;27;43793;-79
2023/05/30 07:53:51;;;;;;;4.90;1.90;;;;;;;27.46;27.43;99561.06;5153864;27;42249;-79
2023/05/30 07:56:18;;;;;;;6.67;2.63;;;;;;;28.23;25.46;99573.25;5118811;27;39004;-76
2023/05/30 07:58:48;;;;;;;5.57;2.70;;;;;;;29.69;25.51;99564.50;5154904;27;41745;-76
2023/05/30 08:01:15;;;;;;;4.17;1.97;;;;;;;31.05;24.43;99561.56;5154195;27;42881;-79
2023/05/30 08:03:43;;;;;;;3.63;2.00;;;;;;;31.04;23.98;99569.97;5154346;27;43150;-76
2023/05/30 08:06:11;;;;;;;4.93;2.53;;;;;;;30.54;24.25;99571.44;5135557;27;40008;-78
2023/05/30 08:08:39;;;;;;;5.03;2.37;;;;;;;30.15;24.17;99572.97;5154704;27;42480;-76
2023/05/30 08:11:07;;;;;;;5.30;2.50;;;;;;;30.07;23.96;99575.00;5135837;27;42810;-76
2023/05/30 08:13:35;;;;;;;4.37;2.63;;;;;;;30.42;24.03;99570.28;5133445;27;42978;-76
2023/05/30 08:16:09;;;;;;;4.47;2.43;;;;;;;31.06;24.04;99566.00;5134773;27;40864;-79
2023/05/30 08:18:37;;;;;;;3.70;2.20;;;;;;;31.44;23.27;99573.56;5118114;27;40674;-77
2023/05/30 08:21:05;;;;;;;4.90;2.33;;;;;;;32.03;22.83;99583.56;5117265;27;41807;-76
2023/05/30 08:23:32;;;;;;;5.00;2.30;;;;;;;32.59;21.40;99591.97;5134977;27;41558;-76
2023/05/30 08:26:00;;;;;;;4.20;2.17;;;;;;;32.51;22.63;99575.78;5117623;27;38907;-77
2023/05/30 08:28:28;;;;;;;4.50;2.43;;;;;;;32.91;22.74;99581.84;5134718;27;40804;-76
2023/05/30 08:30:56;;;;;;;3.73;2.30;;;;;;;33.01;22.01;99595.91;5134358;27;42753;-77
2023/05/30 08:33:27;;;;;;;5.40;2.20;;;;;;;33.04;21.58;99594.63;5118603;27;20228;-77
2023/05/30 08:35:55;;;;;;;6.57;2.47;;;;;;;33.30;20.85;99601.84;5133282;27;38712;-78
2023/05/30 08:38:23;;;;;;;3.80;2.60;;;;;;;33.86;21.06;99597.09;5153188;27;41533;-76
2023/05/30 08:40:53;;;;;;;4.03;2.13;;;;;;;34.49;20.95;99590.41;5134446;27;42911;-77
2023/05/30 08:43:21;;;;;;;4.88;2.25;;;;;;;34.64;20.40;99592.72;5117223;27;42237;-80
2023/05/30 08:45:53;;;;;;;4.13;2.53;;;;;;;34.20;20.95;99586.53;5153103;27;40153;-79
2023/05/30 08:48:21;;;;;;;3.15;2.22;;;;;;;33.58;21.61;99582.16;5134797;27;40156;-76
2023/05/30 08:50:52;;;;;;;3.87;2.20;;;;;;;32.91;21.88;99573.63;5134166;27;43682;-76
2023/05/30 08:53:26;;;;;;;4.10;2.40;;;;;;;32.47;21.68;99580.84;5131266;27;42139;-77
2023/05/30 08:55:59;;;;;;;3.93;2.27;;;;;;;31.97;22.26;99573.47;5134613;27;39234;-75
2023/05/30 08:58:30;;;;;;;4.03;2.30;;;;;;;31.47;22.60;99564.94;5150779;27;41895;-78
2023/05/30 09:00:59;;;;;;;3.40;2.37;;;;;;;31.12;24.64;99545.19;5150506;27;42746;-80
2023/05/30 09:03:29;;;;;;;4.30;2.40;;;;;;;31.06;23.85;99566.00;5117730;27;42370;-74
2023/05/30 09:05:59;;;;;;;3.97;2.47;;;;;;;30.90;22.86;99571.91;5134483;27;40047;-78
2023/05/30 09:08:28;;;;;;;4.53;2.53;;;;;;;30.82;23.83;99563.88;5135338;27;41592;-76
2023/05/30 09:10:56;;;;;;;6.70;2.40;;;;;;;30.51;24.58;99558.13;5134750;27;43957;-76
2023/05/30 09:13:24;;;;;;;3.80;2.47;;;;;;;30.30;24.02;99565.44;5134500;27;42227;-78
2023/05/30 09:15:53;;;;;;;3.33;2.30;;;;;;;30.33;25.85;99532.22;5136615;27;39141;-80
2023/05/30 09:18:21;;;;;;;5.23;2.43;;;;;;;30.64;24.55;99558.19;5157189;27;41865;-79
2023/05/30 09:20:49;;;;;;;6.83;2.57;;;;;;;30.50;23.59;99553.72;5156816;27;42772;-77
2023/05/30 09:23:18;;;;;;;4.50;2.30;;;;;;;30.59;24.97;99536.09;5120298;27;42483;-76
2023/05/30 09:25:48;;;;;;;5.90;2.50;;;;;;;30.51;23.69;99560.88;5155891;27;40688;-78
2023/05/30 09:28:16;;;;;;;5.10;2.50;;;;;;;30.26;24.06;99558.72;5119930;27;40998;-78
2023/05/30 09:30:54;;;;;;;5.53;2.53;;;;;;;31.00;24.31;99546.84;5137344;27;42804;-76
2023/05/30 09:33:22;;;;;;;4.40;2.50;;;;;;;32.09;22.33;99558.03;5137413;27;41941;-78
2023/05/30 09:35:53;;;;;;;7.47;2.40;;;;;;;32.45;22.40;99561.03;5119883;27;38959;-76
2023/05/30 09:38:24;;;;;;;4.33;2.63;;;;;;;32.59;23.53;99549.97;5137431;27;41785;-76
2023/05/30 09:40:56;;;;;;;6.17;2.70;;;;;;;33.11;22.81;99552.34;5134337;27;43549;-80
2023/05/30 09:43:31;;;;;;;3.33;2.30;;;;;;;34.11;22.22;99546.69;5134480;27;43183;-78
2023/05/30 09:46:01;;;;;;;5.03;2.50;;;;;;;35.55;20.58;99562.03;5119821;27;40246;-77
2023/05/30 09:48:28;;;;;;;3.23;2.17;;;;;;;36.29;18.91;99577.75;5119884;27;42020;-77
2023/05/30 09:51:00;;;;;;;5.03;2.47;;;;;;;37.13;18.10;99579.84;5155164;27;43541;-77
2023/05/30 09:53:34;;;;;;;4.32;2.60;;;;;;;37.84;17.79;99587.34;5119939;27;42417;-79
2023/05/30 09:56:03;;;;;;;3.50;2.03;;;;;;;37.63;17.64;99590.91;5120248;27;40838;-77
2023/05/30 09:58:30;;;;;;;3.73;2.40;;;;;;;36.47;18.74;99576.72;5138010;27;41861;-81
2023/05/30 10:01:00;;;;;;;4.57;2.30;;;;;;;35.26;19.75;99564.66;5137585;27;41467;-79
2023/05/30 10:03:42;;;;;;;4.97;2.30;;;;;;;34.21;20.98;99566.22;5137681;27;42342;-76
2023/05/30 10:06:13;;;;;;;5.67;2.53;;;;;;;33.54;21.64;99554.28;5134733;27;40874;-75
2023/05/30 10:08:45;;;;;;;2.70;2.23;;;;;;;33.08;22.05;99565.69;5152890;27;41879;-76
2023/05/30 10:11:13;;;;;;;3.90;2.50;;;;;;;32.63;21.49;99551.22;5120026;27;41787;-77
2023/05/30 10:13:42;;;;;;;3.87;2.50;;;;;;;32.44;22.18;99564.00;5119821;27;42260;-78
2023/05/30 10:16:12;;;;;;;4.43;2.60;;;;;;;32.43;21.79;99562.31;5135594;27;39746;-77
2023/05/30 10:18:45;;;;;;;4.90;2.60;;;;;;;32.97;22.08;99550.78;5119512;27;41006;-76
2023/05/30 10:21:15;;;;;;;5.80;2.80;;;;;;;33.51;21.92;99543.75;5152198;27;43178;-78
2023/05/30 10:23:45;;;;;;;4.00;2.17;;;;;;;33.65;21.75;99548.03;5136448;27;40946;-80
2023/05/30 10:26:14;;;;;;;6.73;2.53;;;;;;;33.71;21.14;99536.13;5154837;27;39956;-79
2023/05/30 10:28:45;;;;;;;4.63;2.73;;;;;;;33.83;21.57;99548.06;5135844;27;41683;-77
2023/05/30 10:31:14;;;;;;;5.60;2.77;;;;;;;33.51;21.72;99521.75;5136223;27;41710;-77
2023/05/30 10:33:45;;;;;;;5.60;2.70;;;;;;;33.22;21.94;99534.31;5118830;27;42471;-77
2023/05/30 10:36:12;;;;;;;4.67;2.57;;;;;;;32.94;23.28;99510.06;5154600;27;41011;-79
2023/05/30 10:38:47;;;;;;;3.53;2.13;;;;;;;32.87;19.94;99546.88;5136296;27;42329;-79
2023/05/30 10:41:24;;;;;;;3.70;2.63;;;;;;;32.84;23.31;99520.72;5136175;27;41644;-77
2023/05/30 10:44:04;;;;;;;4.27;2.67;;;;;;;32.98;22.06;99526.94;5151511;27;43178;-81
2023/05/30 10:46:42;;;;;;;4.87;2.20;;;;;;;32.89;22.49;99517.31;5136356;27;40229;-78
2023/05/30 10:49:14;;;;;;;5.40;2.60;;;;;;;32.54;23.36;99514.13;5151780;27;41638;-79
2023/05/30 10:52:01;;;;;;;7.43;2.50;;;;;;;32.24;23.77;99520.25;5118981;27;42828;-79
2023/05/30 10:54:32;;;;;;;4.30;2.30;;;;;;;32.04;22.52;99524.94;5119115;27;41175;-76
2023/05/30 10:57:00;;;;;;;4.10;2.17;;;;;;;31.99;22.15;99531.09;5136814;27;39241;-75
2023/05/30 10:59:28;;;;;;;3.87;2.23;;;;;;;31.99;20.62;99535.75;5136968;27;41737;-77
2023/05/30 11:02:01;;;;;;;4.17;2.40;;;;;;;32.13;21.31;99529.16;5119215;27;42771;-76
2023/05/30 11:04:32;;;;;;;3.73;2.40;;;;;;;31.94;21.86;99519.94;5119745;27;41970;-77
2023/05/30 11:07:00;;;;;;;4.40;2.27;;;;;;;31.68;23.26;99448.81;5119293;27;38929;-78
2023/05/30 11:09:28;;;;;;;4.73;2.57;;;;;;;31.97;21.39;99511.28;5136644;27;41506;-79
2023/05/30 11:11:59;;;;;;;3.00;2.50;;;;;;;31.95;20.50;99526.25;5136357;27;42522;-77
2023/05/30 11:14:28;;;;;;;5.13;2.37;;;;;;;31.88;22.97;99498.06;5136738;27;41886;-77
2023/05/30 11:17:00;;;;;;;3.97;2.27;;;;;;;31.65;20.49;99524.03;5119025;27;39965;-80
2023/05/30 11:19:28;;;;;;;3.43;2.20;;;;;;;31.52;21.05;99515.88;5155519;27;42246;-76
2023/05/30 11:21:58;;;;;;;4.13;2.10;;;;;;;31.53;21.38;99512.03;5136108;27;42791;-78
2023/05/30 11:24:26;;;;;;;4.73;1.97;;;;;;;31.35;19.59;99526.44;5153440;27;42482;-76
2023/05/30 11:27:09;;;;;;;3.47;2.20;;;;;;;31.07;20.92;99507.47;5135485;27;40046;-78
2023/05/30 11:29:44;;;;;;;4.60;2.80;;;;;;;31.03;19.95;99516.34;5135550;27;40384;-77
2023/05/30 11:32:12;;;;;;;5.67;2.20;;;;;;;30.94;20.15;99512.97;5152518;27;43744;-76
2023/05/30 11:34:40;;;;;;;3.77;2.40;;;;;;;31.13;22.22;99488.56;5135421;27;42462;-79
2023/05/30 11:37:08;;;;;;;2.83;1.97;;;;;;;31.50;22.76;99481.53;5153450;27;41153;-76
2023/05/30 11:39:36;;;;;;;2.53;2.00;;;;;;;31.84;20.71;99485.84;5135257;27;41796;-79
2023/05/30 11:42:08;;;;;;;4.00;2.37;;;;;;;32.31;19.48;99504.59;5135432;27;42717;-80
2023/05/30 11:44:35;;;;;;;5.97;2.53;;;;;;;32.66;19.28;99510.47;5150631;27;42930;-77